Time;durP1;ratioP1;P1;durP2;ratioP2;P2;SDS_P1;SDS_P2;PMS_P1;PMS_P2;Temp;Humidity;BMP_temperature;BMP_pressure;BME280_temperature;BME280_humidity;BME280_pressure;Samples;Min_cycle;Max_cycle;Signal;HPM_P1;HPM_P2
2023/09/12 00:00:57;;;;;;;38.20;16.70;;;;;;;10.82;100.00;101203.59;106460;1286;72607;-83
2023/09/12 00:03:23;;;;;;;37.20;16.90;;;;;;;10.79;100.00;101204.04;106722;1285;59065;-83
2023/09/12 00:05:58;;;;;;;38.50;15.60;;;;;;;10.74;100.00;101201.70;106732;1285;59052;-82
2023/09/12 00:08:24;;;;;;;36.80;16.30;;;;;;;10.71;100.00;101201.80;106522;1286;75486;-82
2023/09/12 00:11:04;;;;;;;39.00;15.70;;;;;;;10.67;100.00;101200.98;106480;1286;59393;-83
2023/09/12 00:13:31;;;;;;;35.50;16.90;;;;;;;10.65;100.00;101204.85;106563;1286;72522;-83
2023/09/12 00:15:57;;;;;;;39.90;16.80;;;;;;;10.62;100.00;101203.02;106552;1286;59040;-82
2023/09/12 00:18:22;;;;;;;35.30;16.20;;;;;;;10.62;100.00;101210.08;106469;1286;59864;-83
2023/09/12 00:20:49;;;;;;;33.40;15.90;;;;;;;10.62;100.00;101205.77;106477;1286;59142;-83
2023/09/12 00:23:15;;;;;;;33.70;17.00;;;;;;;10.60;100.00;101206.53;106302;1286;59256;-82
2023/09/12 00:25:41;;;;;;;34.80;16.60;;;;;;;10.56;100.00;101203.94;106553;1286;59119;-83
2023/09/12 00:28:06;;;;;;;34.50;17.10;;;;;;;10.48;100.00;101204.67;106792;1283;59420;-82
2023/09/12 00:30:31;;;;;;;35.10;15.40;;;;;;;10.47;100.00;101209.23;107112;1282;59075;-83
2023/09/12 00:32:57;;;;;;;33.20;15.20;;;;;;;10.45;100.00;101207.73;107077;1282;59203;-83
2023/09/12 00:35:22;;;;;;;36.00;16.70;;;;;;;10.42;100.00;101209.33;106797;1283;59083;-83
2023/09/12 00:37:48;;;;;;;35.80;17.10;;;;;;;10.43;100.00;101210.25;107003;1283;58994;-82
2023/09/12 00:40:14;;;;;;;35.40;17.20;;;;;;;10.45;100.00;101212.86;107003;1283;59075;-83
2023/09/12 00:42:40;;;;;;;33.10;15.90;;;;;;;10.46;100.00;101212.34;106913;1283;59591;-83
2023/09/12 00:45:06;;;;;;;33.70;16.00;;;;;;;10.44;100.00;101210.28;107063;1283;73367;-83
2023/09/12 00:47:33;;;;;;;34.40;16.20;;;;;;;10.42;100.00;101214.81;107097;1282;59006;-83
2023/09/12 00:50:00;;;;;;;32.20;15.80;;;;;;;10.40;100.00;101213.00;107087;1282;59014;-83
2023/09/12 00:52:28;;;;;;;32.80;16.30;;;;;;;10.34;100.00;101218.51;107052;1282;74405;-83
2023/09/12 00:54:54;;;;;;;33.00;16.30;;;;;;;10.29;100.00;101219.58;107017;1282;74658;-82
2023/09/12 00:57:21;;;;;;;36.40;16.40;;;;;;;10.23;100.00;101217.52;106727;1283;59285;-83
2023/09/12 00:59:48;;;;;;;33.50;15.80;;;;;;;10.21;100.00;101217.42;106805;1286;62246;-83
2023/09/12 01:02:13;;;;;;;33.70;15.50;;;;;;;10.19;100.00;101216.91;107087;1283;60979;-83
2023/09/12 01:04:40;;;;;;;28.20;15.20;;;;;;;10.21;100.00;101219.85;107006;1283;59156;-82
2023/09/12 01:07:05;;;;;;;36.70;16.80;;;;;;;10.22;100.00;101219.38;106833;1283;59023;-82
2023/09/12 01:09:32;;;;;;;39.70;17.90;;;;;;;10.22;100.00;101219.33;106988;1283;59077;-82
2023/09/12 01:12:00;;;;;;;32.20;15.30;;;;;;;10.23;100.00;101224.73;106967;1283;58957;-82
2023/09/12 01:14:25;;;;;;;35.80;16.30;;;;;;;10.21;100.00;101224.09;107008;1283;59087;-83
2023/09/12 01:16:51;;;;;;;33.10;16.00;;;;;;;10.19;100.00;101225.84;107111;1282;59219;-83
2023/09/12 01:19:19;;;;;;;41.50;15.80;;;;;;;10.15;100.00;101228.31;106858;1282;59088;-83
2023/09/12 01:22:06;;;;;;;31.40;14.90;;;;;;;10.14;100.00;101225.33;106985;1283;59077;-82
2023/09/12 01:25:08;;;;;;;33.60;16.20;;;;;;;10.11;100.00;101226.93;106630;1283;59859;-83
2023/09/12 01:27:37;;;;;;;34.80;15.60;;;;;;;10.09;100.00;101223.40;107127;1282;61137;-82
2023/09/12 01:30:05;;;;;;;30.30;15.10;;;;;;;10.06;100.00;101223.39;107003;1282;74420;-83
2023/09/12 01:32:33;;;;;;;32.10;15.40;;;;;;;10.04;100.00;101223.89;107027;1283;73988;-82
2023/09/12 01:34:59;;;;;;;30.60;15.00;;;;;;;10.05;100.00;101224.33;106960;1282;72910;-83
2023/09/12 01:37:26;;;;;;;33.90;15.40;;;;;;;10.03;100.00;101224.35;106967;1283;58998;-83
2023/09/12 01:39:52;;;;;;;30.80;15.90;;;;;;;10.02;100.00;101225.04;106693;1285;59355;-83
2023/09/12 01:42:21;;;;;;;38.40;15.90;;;;;;;10.02;100.00;101223.39;106901;1286;59122;-83
2023/09/12 01:44:49;;;;;;;28.30;14.50;;;;;;;9.99;100.00;101218.27;106617;1286;74352;-83
2023/09/12 01:47:17;;;;;;;35.40;15.50;;;;;;;9.95;100.00;101215.05;106725;1285;72516;-83
2023/09/12 01:49:47;;;;;;;32.90;16.30;;;;;;;9.93;100.00;101217.49;106785;1285;61066;-83
2023/09/12 01:52:14;;;;;;;32.00;15.50;;;;;;;9.90;100.00;101210.92;106867;1285;60309;-83
2023/09/12 01:54:42;;;;;;;31.70;15.50;;;;;;;9.89;100.00;101211.93;106855;1285;75280;-83
2023/09/12 01:57:09;;;;;;;34.60;15.70;;;;;;;9.91;100.00;101212.68;106709;1285;72429;-83
2023/09/12 01:59:35;;;;;;;30.00;15.30;;;;;;;9.89;100.00;101211.83;106831;1284;73566;-83
2023/09/12 02:02:00;;;;;;;31.70;15.70;;;;;;;9.88;100.00;101208.32;106659;1285;59163;-83
2023/09/12 02:04:26;;;;;;;31.10;15.90;;;;;;;9.87;100.00;101209.63;106678;1286;59550;-83
2023/09/12 02:06:52;;;;;;;34.30;16.40;;;;;;;9.84;100.00;101207.62;106718;1286;59058;-83
2023/09/12 02:09:17;;;;;;;33.70;15.20;;;;;;;9.78;100.00;101210.42;106871;1285;59000;-82
2023/09/12 02:11:43;;;;;;;36.20;16.90;;;;;;;9.73;100.00;101214.46;106942;1283;61857;-82
2023/09/12 02:14:10;;;;;;;35.10;17.40;;;;;;;9.70;100.00;101211.39;106770;1283;59120;-83
2023/09/12 02:16:39;;;;;;;31.90;16.20;;;;;;;9.67;100.00;101209.99;106671;1283;59197;-83
2023/09/12 02:19:06;;;;;;;34.00;16.40;;;;;;;9.66;100.00;101209.15;106567;1283;73609;-83
2023/09/12 02:21:32;;;;;;;35.00;16.50;;;;;;;9.67;100.00;101210.14;107028;1282;73748;-82
2023/09/12 02:23:58;;;;;;;34.30;16.70;;;;;;;9.64;100.00;101211.92;107114;1283;59095;-83
2023/09/12 02:26:23;;;;;;;27.60;14.70;;;;;;;9.60;100.00;101216.67;106522;1283;59169;-83
2023/09/12 02:28:49;;;;;;;30.60;15.20;;;;;;;9.58;100.00;101221.38;107103;1283;59037;-83
2023/09/12 02:31:14;;;;;;;32.10;16.80;;;;;;;9.59;100.00;101219.11;106746;1285;59608;-83
2023/09/12 02:33:40;;;;;;;34.40;16.50;;;;;;;9.61;100.00;101223.25;106556;1286;61003;-82
2023/09/12 02:36:06;;;;;;;29.60;15.70;;;;;;;9.64;100.00;101223.77;106707;1286;59139;-83
2023/09/12 02:38:32;;;;;;;35.70;15.20;;;;;;;9.64;100.00;101223.02;106442;1286;59359;-82
2023/09/12 02:40:58;;;;;;;30.10;15.10;;;;;;;9.62;100.00;101219.45;106388;1286;59434;-83
2023/09/12 02:43:24;;;;;;;37.40;14.80;;;;;;;9.57;100.00;101221.35;106468;1286;59094;-83
2023/09/12 02:45:49;;;;;;;30.00;14.90;;;;;;;9.52;100.00;101220.40;106559;1286;59465;-83
2023/09/12 02:48:15;;;;;;;28.60;14.70;;;;;;;9.51;100.00;101219.02;106763;1285;59482;-83
2023/09/12 02:50:40;;;;;;;32.30;15.60;;;;;;;9.49;100.00;101215.74;106399;1286;59168;-83
2023/09/12 02:53:06;;;;;;;29.60;15.80;;;;;;;9.48;100.00;101216.75;106704;1286;59675;-82
2023/09/12 02:55:33;;;;;;;30.70;15.80;;;;;;;9.46;100.00;101218.54;106573;1286;59131;-83
2023/09/12 02:57:58;;;;;;;30.70;15.40;;;;;;;9.40;100.00;101221.87;106453;1286;59114;-82
2023/09/12 03:00:24;;;;;;;29.90;15.30;;;;;;;9.37;100.00;101224.70;106745;1285;59226;-82
2023/09/12 03:02:50;;;;;;;35.30;16.40;;;;;;;9.35;100.00;101224.28;106862;1283;59061;-83
2023/09/12 03:05:16;;;;;;;30.00;15.80;;;;;;;9.36;100.00;101229.13;107072;1283;59037;-83
2023/09/12 03:07:41;;;;;;;38.20;17.00;;;;;;;9.36;100.00;101229.40;106752;1282;59054;-83
2023/09/12 03:10:07;;;;;;;37.00;16.60;;;;;;;9.35;100.00;101226.52;107029;1283;59111;-83
2023/09/12 03:12:32;;;;;;;38.40;17.20;;;;;;;9.36;100.00;101232.67;107065;1282;59030;-83
2023/09/12 03:14:58;;;;;;;30.60;15.50;;;;;;;9.34;100.00;101234.48;107054;1283;59044;-82
2023/09/12 03:17:23;;;;;;;36.50;15.90;;;;;;;9.36;100.00;101238.18;107045;1283;59026;-82
2023/09/12 03:19:49;;;;;;;35.20;15.70;;;;;;;9.36;100.00;101237.98;107037;1283;74267;-82
2023/09/12 03:22:15;;;;;;;33.70;15.60;;;;;;;9.37;100.00;101241.38;106833;1282;59125;-82
2023/09/12 03:24:40;;;;;;;32.60;16.80;;;;;;;9.42;100.00;101241.04;107062;1283;59084;-83
2023/09/12 03:27:07;;;;;;;36.60;16.10;;;;;;;9.43;100.00;101240.10;107092;1282;59055;-83
2023/09/12 03:29:33;;;;;;;30.60;15.80;;;;;;;9.44;100.00;101241.38;107093;1282;58983;-82
2023/09/12 03:31:58;;;;;;;31.60;16.00;;;;;;;9.47;100.00;101243.21;106871;1283;59744;-82
2023/09/12 03:34:24;;;;;;;38.60;15.10;;;;;;;9.52;100.00;101244.13;107087;1282;59102;-82
2023/09/12 03:36:49;;;;;;;34.80;15.90;;;;;;;9.56;100.00;101247.48;106826;1286;59209;-82
2023/09/12 03:39:18;;;;;;;36.90;15.90;;;;;;;9.60;100.00;101249.98;106773;1285;59516;-82
2023/09/12 03:41:43;;;;;;;34.70;16.50;;;;;;;9.73;100.00;101255.01;106579;1290;75403;-82
2023/09/12 03:44:09;;;;;;;30.30;15.00;;;;;;;9.87;100.00;101254.36;106716;1284;59204;-83
2023/09/12 03:46:34;;;;;;;30.10;15.80;;;;;;;10.01;100.00;101253.85;106716;1285;59174;-82
2023/09/12 03:49:00;;;;;;;30.70;15.10;;;;;;;10.13;100.00;101253.31;106755;1285;59134;-83
2023/09/12 03:51:25;;;;;;;32.70;16.70;;;;;;;10.24;100.00;101256.86;106535;1285;58990;-83
2023/09/12 03:53:51;;;;;;;31.00;16.20;;;;;;;10.37;100.00;101253.56;106773;1285;59157;-82
2023/09/12 03:56:19;;;;;;;34.20;16.50;;;;;;;10.44;100.00;101255.27;106485;1285;59192;-83
2023/09/12 03:58:45;;;;;;;33.90;15.20;;;;;;;10.51;100.00;101253.48;106391;1292;61961;-83
2023/09/12 04:01:11;;;;;;;31.90;16.10;;;;;;;10.61;100.00;101250.31;106777;1285;59019;-83
2023/09/12 04:03:37;;;;;;;41.90;16.70;;;;;;;10.73;100.00;101250.95;106770;1285;59324;-83
2023/09/12 04:06:04;;;;;;;38.50;16.10;;;;;;;10.91;100.00;101249.84;106733;1286;59092;-84
2023/09/12 04:08:32;;;;;;;32.40;14.90;;;;;;;11.25;100.00;101249.70;106811;1284;59110;-83
2023/09/12 04:10:58;;;;;;;35.70;15.00;;;;;;;12.07;100.00;101253.94;106854;1284;60389;-83
2023/09/12 04:13:46;;;;;;;41.50;14.70;;;;;;;13.11;100.00;101248.28;106929;1285;59029;-83
2023/09/12 04:16:11;;;;;;;29.80;13.40;;;;;;;14.27;100.00;101242.73;106300;1292;73400;-84
2023/09/12 04:18:37;;;;;;;32.80;13.70;;;;;;;15.31;100.00;101245.71;106649;1288;59184;-84
2023/09/12 04:21:03;;;;;;;27.60;12.20;;;;;;;16.30;100.00;101243.67;106306;1290;59114;-84
2023/09/12 04:23:28;;;;;;;27.30;12.30;;;;;;;17.23;100.00;101239.27;106643;1288;59061;-84
2023/09/12 04:25:54;;;;;;;31.30;13.20;;;;;;;18.06;100.00;101237.79;106498;1289;59234;-84
2023/09/12 04:28:19;;;;;;;26.80;12.80;;;;;;;18.85;100.00;101236.62;106468;1288;74376;-84
2023/09/12 04:30:45;;;;;;;37.60;12.60;;;;;;;19.78;100.00;101238.48;106598;1288;59312;-84
2023/09/12 04:33:10;;;;;;;30.30;12.10;;;;;;;20.70;100.00;101242.98;106602;1289;59176;-84
2023/09/12 04:35:36;;;;;;;30.30;12.40;;;;;;;21.58;100.00;101239.44;106662;1289;59169;-84
2023/09/12 04:38:02;;;;;;;24.70;12.60;;;;;;;22.40;100.00;101239.61;106380;1290;59142;-84
2023/09/12 04:40:28;;;;;;;27.20;12.70;;;;;;;23.34;100.00;101245.03;106643;1288;72370;-84
2023/09/12 04:42:54;;;;;;;29.70;12.80;;;;;;;24.18;93.97;101242.45;106670;1289;59437;-84
2023/09/12 04:45:19;;;;;;;23.80;12.40;;;;;;;24.78;85.24;101248.84;106473;1287;59069;-85
2023/09/12 04:47:45;;;;;;;26.90;11.90;;;;;;;25.03;79.45;101248.77;106654;1288;59128;-85
2023/09/12 04:50:11;;;;;;;34.00;15.20;;;;;;;25.56;77.67;101245.95;106338;1290;59223;-85
2023/09/12 04:52:37;;;;;;;35.30;14.90;;;;;;;26.32;72.31;101245.51;106609;1288;60010;-85
2023/09/12 04:55:03;;;;;;;33.20;16.70;;;;;;;27.10;70.22;101239.80;106318;1289;59054;-82
2023/09/12 04:57:30;;;;;;;33.10;15.40;;;;;;;27.93;64.62;101236.35;106344;1289;61131;-82
2023/09/12 04:59:58;;;;;;;29.60;14.60;;;;;;;28.60;60.60;101238.63;106504;1289;59061;-83
2023/09/12 05:02:24;;;;;;;29.10;13.80;;;;;;;29.28;58.14;101240.39;106642;1289;73545;-83
2023/09/12 05:04:50;;;;;;;35.00;14.40;;;;;;;29.84;55.27;101237.77;106501;1287;60206;-83
2023/09/12 05:07:15;;;;;;;24.80;12.70;;;;;;;30.30;53.83;101239.40;106365;1289;59944;-83
2023/09/12 05:09:41;;;;;;;31.00;13.40;;;;;;;31.09;51.24;101234.92;106456;1288;59057;-83
2023/09/12 05:12:07;;;;;;;30.90;14.80;;;;;;;31.78;48.77;101239.98;106488;1288;59345;-83
2023/09/12 05:14:32;;;;;;;41.90;15.20;;;;;;;32.39;47.73;101237.80;106879;1285;59978;-83
2023/09/12 05:16:58;;;;;;;36.50;16.10;;;;;;;33.09;45.96;101241.38;106792;1285;61284;-83
2023/09/12 05:19:25;;;;;;;38.30;16.90;;;;;;;33.58;43.87;101241.13;106926;1284;59130;-83
2023/09/12 05:21:51;;;;;;;36.60;15.50;;;;;;;33.84;41.93;101246.10;106921;1283;58970;-83
2023/09/12 05:24:16;;;;;;;31.10;16.20;;;;;;;34.00;41.26;101248.69;106725;1286;59200;-83
2023/09/12 05:26:42;;;;;;;43.10;16.10;;;;;;;33.77;40.88;101246.44;106971;1285;59026;-85
2023/09/12 05:29:07;;;;;;;32.00;15.70;;;;;;;33.72;41.54;101252.29;106792;1286;59189;-83
2023/09/12 05:31:36;;;;;;;33.10;14.00;;;;;;;34.17;40.50;101252.48;106987;1285;59072;-83
2023/09/12 05:34:01;;;;;;;29.60;13.90;;;;;;;33.60;40.08;101252.15;106630;1286;72626;-84
2023/09/12 05:36:27;;;;;;;27.10;12.50;;;;;;;33.60;40.30;101252.15;106918;1287;59080;-87
2023/09/12 05:40:39;;;;;;;27.70;11.30;;;;;;;35.19;38.47;101251.36;103791;1283;600822;-86
2023/09/12 05:43:05;;;;;;;27.10;11.90;;;;;;;36.35;36.72;101250.79;104004;1289;60408;-88
2023/09/12 05:45:32;;;;;;;23.90;11.60;;;;;;;36.98;35.30;101251.01;103733;1283;60471;-87
2023/09/12 05:47:58;;;;;;;20.40;9.50;;;;;;;37.55;34.27;101253.91;104014;1283;60428;-87
2023/09/12 05:50:24;;;;;;;21.00;10.10;;;;;;;38.00;33.28;101254.02;103863;1287;60398;-87
2023/09/12 05:52:50;;;;;;;19.00;9.80;;;;;;;38.67;32.72;101256.91;103687;1283;60419;-87
2023/09/12 05:55:17;;;;;;;17.00;9.00;;;;;;;39.15;31.76;101253.51;103161;1287;338567;-87
2023/09/12 05:57:43;;;;;;;12.60;8.20;;;;;;;39.14;31.06;101252.89;103876;1286;60395;-86
2023/09/12 06:00:11;;;;;;;18.30;8.40;;;;;;;39.29;30.45;101248.64;103962;1283;60331;-87
2023/09/12 06:02:42;;;;;;;14.90;8.00;;;;;;;39.51;29.99;101246.94;104049;1283;60341;-87
2023/09/12 06:05:08;;;;;;;13.60;7.70;;;;;;;39.93;29.01;101250.79;103540;1290;74846;-87
2023/09/12 06:07:34;;;;;;;12.80;8.10;;;;;;;40.28;29.50;101253.31;103563;1283;60287;-86
2023/09/12 06:10:00;;;;;;;27.70;8.00;;;;;;;40.65;28.37;101253.33;104135;1283;60338;-85
2023/09/12 06:12:26;;;;;;;12.60;7.50;;;;;;;40.88;28.12;101255.47;103960;1285;60501;-85
2023/09/12 06:14:54;;;;;;;16.10;7.50;;;;;;;41.23;27.63;101258.37;104023;1283;60345;-86
2023/09/12 06:17:19;;;;;;;16.50;7.20;;;;;;;41.19;27.02;101259.30;103835;1282;60409;-85
2023/09/12 06:19:47;;;;;;;12.40;7.50;;;;;;;41.06;27.28;101256.27;103830;1283;60402;-86
2023/09/12 06:25:43;;;;;;;13.00;7.80;;;;;;;41.74;26.52;101257.37;103996;1282;601160;-86
2023/09/12 06:28:10;;;;;;;12.10;7.90;;;;;;;42.20;25.88;101260.60;103842;1283;60397;-86
2023/09/12 06:30:36;;;;;;;8.10;6.40;;;;;;;42.53;25.74;101262.73;106841;1283;60178;-86
2023/09/12 06:33:02;;;;;;;11.70;7.10;;;;;;;42.88;25.29;101260.09;106994;1283;58029;-87
2023/09/12 06:35:27;;;;;;;11.50;7.70;;;;;;;43.56;24.72;101265.09;106853;1283;58333;-85
2023/09/12 06:37:56;;;;;;;13.70;7.40;;;;;;;43.88;24.33;101263.95;107006;1283;58254;-86
2023/09/12 06:40:22;;;;;;;10.10;6.70;;;;;;;43.96;24.10;101264.68;106947;1281;344865;-86
2023/09/12 06:42:47;;;;;;;11.90;7.40;;;;;;;44.41;23.70;101263.92;107096;1280;58021;-86
2023/09/12 06:45:13;;;;;;;8.40;7.30;;;;;;;43.76;23.75;101266.30;107259;1281;58189;-86
2023/09/12 06:47:38;;;;;;;11.80;7.20;;;;;;;43.99;23.59;101265.80;107277;1280;58233;-86
2023/09/12 06:50:15;;;;;;;10.50;7.30;;;;;;;43.95;23.39;101267.85;107201;1281;58206;-85
2023/09/12 06:52:45;;;;;;;10.80;7.10;;;;;;;43.55;22.93;101270.29;106394;1285;61418;-85
2023/09/12 06:55:11;;;;;;;11.30;6.50;;;;;;;43.75;23.24;101270.67;106739;1284;72279;-85
2023/09/12 06:57:37;;;;;;;22.10;6.80;;;;;;;43.36;22.82;101275.27;106803;1285;58121;-85
2023/09/12 07:00:07;;;;;;;9.90;6.10;;;;;;;41.96;23.14;101271.69;106501;1285;58850;-83
2023/09/12 07:02:32;;;;;;;9.90;5.30;;;;;;;41.71;23.91;101270.98;106467;1284;60221;-84
2023/09/12 07:04:58;;;;;;;10.90;5.30;;;;;;;41.75;23.81;101274.96;106713;1285;58195;-84
2023/09/12 07:07:24;;;;;;;8.00;5.20;;;;;;;41.76;24.14;101278.02;106601;1288;58598;-84
2023/09/12 07:09:50;;;;;;;7.40;4.50;;;;;;;41.56;23.90;101279.46;106561;1288;58067;-84
2023/09/12 07:12:15;;;;;;;19.30;5.20;;;;;;;40.85;23.92;101281.83;106371;1287;58648;-84
2023/09/12 07:14:41;;;;;;;8.50;5.10;;;;;;;40.56;24.32;101279.74;106552;1288;58114;-83
2023/09/12 07:17:08;;;;;;;18.30;5.50;;;;;;;41.38;24.72;101279.99;106432;1287;72905;-83
2023/09/12 07:19:34;;;;;;;11.50;5.70;;;;;;;42.64;23.86;101281.17;106571;1287;71940;-83
2023/09/12 07:21:59;;;;;;;10.60;5.70;;;;;;;42.79;23.01;101277.16;106421;1288;58674;-83
2023/09/12 07:24:26;;;;;;;8.20;5.50;;;;;;;42.36;23.30;101274.90;106758;1283;58234;-84
2023/09/12 07:26:52;;;;;;;7.90;5.60;;;;;;;42.89;23.28;101284.67;106905;1283;58171;-84
2023/09/12 07:29:18;;;;;;;6.70;5.90;;;;;;;43.37;23.06;101281.79;106698;1284;58172;-84
2023/09/12 07:31:43;;;;;;;7.60;6.40;;;;;;;44.06;23.33;101276.13;106767;1283;58209;-84
2023/09/12 07:34:10;;;;;;;7.30;5.90;;;;;;;44.87;22.39;101270.53;106754;1285;59086;-83
2023/09/12 07:36:36;;;;;;;7.40;6.00;;;;;;;45.17;22.09;101272.30;106753;1286;58083;-84
2023/09/12 07:39:03;;;;;;;6.30;4.50;;;;;;;45.12;21.08;101272.11;107013;1281;73206;-84
2023/09/12 07:41:29;;;;;;;5.70;5.20;;;;;;;45.17;20.74;101272.54;106812;1281;65762;-84
2023/09/12 07:43:54;;;;;;;7.10;5.50;;;;;;;45.26;20.75;101269.98;106964;1281;58266;-84
2023/09/12 07:46:20;;;;;;;7.10;5.70;;;;;;;44.95;20.47;101273.02;107109;1281;58153;-84
2023/09/12 07:48:46;;;;;;;7.60;5.80;;;;;;;44.32;20.83;101272.01;106989;1281;58235;-84
2023/09/12 07:51:17;;;;;;;6.70;6.10;;;;;;;44.40;20.88;101265.39;107095;1281;58195;-84
2023/09/12 07:53:43;;;;;;;6.40;5.10;;;;;;;44.47;20.84;101267.79;106793;1281;75036;-84
2023/09/12 07:56:10;;;;;;;8.60;6.00;;;;;;;44.95;20.98;101270.80;107109;1281;58047;-84
2023/09/12 07:58:36;;;;;;;6.60;5.70;;;;;;;45.15;20.69;101265.56;106885;1285;58438;-84
2023/09/12 08:01:06;;;;;;;7.10;6.40;;;;;;;45.22;20.61;101262.23;106646;1283;58213;-83
2023/09/12 08:03:33;;;;;;;6.50;6.00;;;;;;;45.39;20.42;101261.70;106911;1283;65345;-83
2023/09/12 08:05:59;;;;;;;6.40;5.80;;;;;;;45.55;20.01;101264.63;106799;1284;64881;-85
2023/09/12 08:08:25;;;;;;;6.80;6.00;;;;;;;45.75;20.02;101267.08;106832;1284;58305;-83
2023/09/12 08:10:51;;;;;;;6.30;5.80;;;;;;;45.24;19.83;101266.09;106968;1284;58544;-83
2023/09/12 08:13:17;;;;;;;7.10;5.30;;;;;;;43.94;20.13;101265.45;106968;1285;58199;-83
2023/09/12 08:15:42;;;;;;;6.50;5.10;;;;;;;42.57;20.70;101267.91;106949;1283;58384;-83
2023/09/12 08:18:08;;;;;;;5.90;5.20;;;;;;;42.48;21.32;101265.98;106984;1284;58229;-83
2023/09/12 08:20:34;;;;;;;7.60;4.90;;;;;;;42.65;21.22;101262.90;106924;1285;58198;-83
2023/09/12 08:22:59;;;;;;;9.30;4.80;;;;;;;43.03;21.14;101260.86;106753;1284;58286;-82
2023/09/12 08:25:26;;;;;;;5.30;4.90;;;;;;;43.79;20.95;101253.73;106673;1285;58138;-83
2023/09/12 08:27:52;;;;;;;5.70;4.90;;;;;;;44.35;20.69;101251.98;106934;1284;58203;-83
2023/09/12 08:30:18;;;;;;;7.10;5.30;;;;;;;44.85;20.44;101250.77;107078;1281;58183;-82
2023/09/12 08:32:44;;;;;;;8.70;5.10;;;;;;;45.05;20.19;101245.98;106840;1281;58360;-83
2023/09/12 08:35:14;;;;;;;7.00;5.00;;;;;;;44.79;20.07;101248.52;107159;1282;58197;-82
2023/09/12 08:37:41;;;;;;;5.90;5.10;;;;;;;44.76;19.92;101239.32;106952;1281;72881;-83
2023/09/12 08:40:08;;;;;;;8.50;4.60;;;;;;;45.07;19.83;101240.82;107071;1281;73439;-82
2023/09/12 08:42:44;;;;;;;6.10;4.60;;;;;;;44.55;19.46;101240.08;106997;1281;64861;-82
2023/09/12 08:45:15;;;;;;;7.90;4.40;;;;;;;43.57;20.51;101246.59;107090;1281;59110;-83
2023/09/12 08:47:42;;;;;;;6.80;4.60;;;;;;;43.89;20.08;101240.40;107051;1283;60744;-82
2023/09/12 08:50:13;;;;;;;4.30;3.90;;;;;;;43.16;20.29;101239.21;106900;1283;72858;-82
2023/09/12 08:52:41;;;;;;;9.70;3.50;;;;;;;42.12;21.02;101240.41;106759;1283;74204;-81
2023/09/12 08:55:08;;;;;;;5.90;3.50;;;;;;;40.72;21.49;101244.50;107004;1283;72617;-82
2023/09/12 08:57:37;;;;;;;4.50;2.90;;;;;;;39.08;22.47;101251.63;106937;1283;58159;-82
2023/09/12 09:00:24;;;;;;;7.40;2.80;;;;;;;37.44;23.23;101252.77;107044;1283;59850;-82
2023/09/12 09:02:50;;;;;;;4.80;3.00;;;;;;;35.96;24.48;101251.67;106662;1286;73968;-83
2023/09/12 09:05:17;;;;;;;11.80;3.60;;;;;;;34.98;25.76;101254.18;106728;1286;58285;-82
2023/09/12 09:07:44;;;;;;;9.10;3.50;;;;;;;33.87;28.15;101259.19;106399;1286;73503;-84
2023/09/12 09:10:17;;;;;;;8.10;3.70;;;;;;;32.59;30.87;101258.66;106350;1286;58226;-83
2023/09/12 09:12:45;;;;;;;7.40;3.40;;;;;;;31.61;31.98;101259.92;106515;1286;60229;-83
2023/09/12 09:15:27;;;;;;;5.90;3.40;;;;;;;31.00;32.91;101259.44;106631;1286;71578;-82
2023/09/12 09:17:53;;;;;;;;;;;;;;;30.41;32.83;101256.79;106559;1286;73558;-82
2023/09/12 09:20:37;;;;;;;5.30;3.30;;;;;;;29.82;33.16;101258.70;106672;1286;58194;-82
2023/09/12 09:23:11;;;;;;;10.00;3.40;;;;;;;29.37;33.96;101264.58;106279;1286;59036;-82
2023/09/12 09:25:41;;;;;;;5.50;3.50;;;;;;;29.14;34.51;101264.91;106814;1284;60967;-82
2023/09/12 09:28:20;;;;;;;11.40;3.20;;;;;;;28.98;34.70;101267.86;106958;1284;72049;-82
2023/09/12 09:30:51;;;;;;;8.40;3.70;;;;;;;28.72;34.93;101265.79;106981;1284;74288;-82
2023/09/12 09:33:17;;;;;;;9.20;3.40;;;;;;;28.60;35.09;101265.48;106967;1283;73228;-82
2023/09/12 09:35:45;;;;;;;8.30;2.90;;;;;;;28.45;35.12;101261.95;106939;1284;58266;-82
2023/09/12 09:38:16;;;;;;;7.80;3.50;;;;;;;28.40;35.23;101262.70;106950;1284;60068;-82
2023/09/12 09:40:42;;;;;;;9.40;3.50;;;;;;;28.34;35.27;101255.42;106740;1284;74136;-81
2023/09/12 09:43:08;;;;;;;8.10;3.70;;;;;;;28.38;35.71;101256.08;107045;1283;74297;-82
2023/09/12 09:45:43;;;;;;;8.10;3.60;;;;;;;28.54;35.23;101255.06;106857;1282;58645;-82
2023/09/12 09:48:09;;;;;;;7.30;3.30;;;;;;;28.41;34.81;101253.53;106963;1283;61577;-82
2023/09/12 09:50:37;;;;;;;7.90;3.80;;;;;;;28.36;35.51;101252.21;106982;1283;58577;-82
2023/09/12 09:53:05;;;;;;;10.40;3.60;;;;;;;28.69;35.25;101251.95;106940;1284;73042;-81
2023/09/12 09:55:32;;;;;;;9.20;3.60;;;;;;;29.45;35.30;101246.15;106854;1283;74345;-81
2023/09/12 09:57:58;;;;;;;10.50;3.20;;;;;;;30.00;34.18;101243.30;106980;1284;73070;-81
2023/09/12 10:00:24;;;;;;;4.10;3.10;;;;;;;30.19;33.56;101235.23;106961;1283;58942;-81
2023/09/12 10:02:54;;;;;;;6.10;3.30;;;;;;;30.58;34.12;101231.86;106931;1283;58131;-81
2023/09/12 10:05:21;;;;;;;6.00;3.10;;;;;;;30.87;33.29;101230.13;106967;1283;73834;-81
2023/09/12 10:07:52;;;;;;;9.30;2.90;;;;;;;30.75;32.65;101232.70;106857;1282;74510;-81
2023/09/12 10:10:19;;;;;;;4.40;3.20;;;;;;;30.73;33.28;101234.65;106953;1283;73283;-81
2023/09/12 10:13:05;;;;;;;6.00;3.50;;;;;;;30.79;33.10;101235.44;106948;1283;61328;-81
2023/09/12 10:15:33;;;;;;;7.40;3.10;;;;;;;31.07;33.27;101233.64;106869;1283;61655;-81
2023/09/12 10:18:04;;;;;;;7.50;3.20;;;;;;;31.15;32.67;101234.74;106971;1282;73832;-81
2023/09/12 10:20:48;;;;;;;6.20;2.50;;;;;;;31.18;32.50;101234.77;106918;1283;74410;-82
2023/09/12 10:23:27;;;;;;;5.50;3.10;;;;;;;31.26;32.01;101235.63;106823;1282;72722;-82
2023/09/12 10:25:57;;;;;;;6.00;2.70;;;;;;;31.23;32.18;101237.50;106735;1284;61015;-81
2023/09/12 10:28:24;;;;;;;6.40;2.80;;;;;;;31.17;32.14;101237.54;106634;1285;61011;-81
2023/09/12 10:30:51;;;;;;;4.70;3.10;;;;;;;31.17;32.60;101238.09;106750;1286;74237;-81
2023/09/12 10:33:18;;;;;;;11.70;3.00;;;;;;;31.27;32.04;101239.05;106933;1284;74071;-81
2023/09/12 10:35:45;;;;;;;6.70;2.70;;;;;;;31.30;32.01;101234.45;106978;1284;73611;-82
2023/09/12 10:38:14;;;;;;;8.60;3.00;;;;;;;31.24;31.64;101233.61;106793;1285;61176;-81
2023/09/12 10:40:40;;;;;;;4.00;2.60;;;;;;;31.16;31.41;101231.88;106649;1284;60206;-81
2023/09/12 10:43:08;;;;;;;5.40;2.70;;;;;;;31.05;30.66;101222.64;106952;1283;75199;-81
2023/09/12 10:45:36;;;;;;;3.70;2.40;;;;;;;30.77;30.60;101226.11;106955;1285;74306;-81
2023/09/12 10:48:03;;;;;;;4.10;2.60;;;;;;;30.55;30.80;101222.30;106772;1285;73474;-81
2023/09/12 10:50:29;;;;;;;7.90;3.00;;;;;;;30.67;31.12;101218.29;106885;1285;61172;-81
2023/09/12 10:52:55;;;;;;;4.20;2.60;;;;;;;30.79;31.06;101216.67;106958;1285;58463;-81
2023/09/12 10:55:20;;;;;;;4.90;3.10;;;;;;;31.09;30.99;101208.59;106449;1288;58605;-80
2023/09/12 10:58:05;;;;;;;8.20;2.50;;;;;;;31.17;30.82;101209.13;106767;1285;58583;-80
2023/09/12 11:00:32;;;;;;;6.70;2.80;;;;;;;31.23;30.43;101209.81;106825;1285;73586;-80
2023/09/12 11:03:02;;;;;;;9.10;2.90;;;;;;;31.33;30.62;101214.44;106793;1285;61130;-81
2023/09/12 11:05:28;;;;;;;6.70;2.90;;;;;;;30.80;30.98;101216.04;106799;1285;60205;-81
2023/09/12 11:07:59;;;;;;;8.00;3.00;;;;;;;30.17;31.21;101214.45;106855;1285;58313;-81
2023/09/12 11:10:25;;;;;;;6.20;2.90;;;;;;;29.48;32.10;101218.34;106794;1285;74804;-81
2023/09/12 11:12:53;;;;;;;7.80;2.90;;;;;;;29.05;32.70;101219.30;106875;1284;58247;-81